sensor_id;sensor_type;location;lat;lon;timestamp;temperature;humidity
35381;DHT22;21486;51.916;8.378;2023-01-01T00:01:42;16.60;57.50
35381;DHT22;21486;51.916;8.378;2023-01-01T00:04:13;16.70;57.30
35381;DHT22;21486;51.916;8.378;2023-01-01T00:06:40;16.70;57.60
35381;DHT22;21486;51.916;8.378;2023-01-01T00:09:06;16.70;57.30
35381;DHT22;21486;51.916;8.378;2023-01-01T00:11:50;16.60;57.10
35381;DHT22;21486;51.916;8.378;2023-01-01T00:14:16;16.80;56.90
35381;DHT22;21486;51.916;8.378;2023-01-01T00:16:41;16.80;57.00
35381;DHT22;21486;51.916;8.378;2023-01-01T00:19:07;16.70;56.90
35381;DHT22;21486;51.916;8.378;2023-01-01T00:21:32;16.80;56.50
35381;DHT22;21486;51.916;8.378;2023-01-01T00:23:58;16.80;56.60
35381;DHT22;21486;51.916;8.378;2023-01-01T00:26:24;16.80;56.80
35381;DHT22;21486;51.916;8.378;2023-01-01T00:28:49;16.80;57.70
35381;DHT22;21486;51.916;8.378;2023-01-01T00:31:17;16.70;57.20
35381;DHT22;21486;51.916;8.378;2023-01-01T00:33:44;16.80;56.90
35381;DHT22;21486;51.916;8.378;2023-01-01T00:36:14;16.70;58.30
35381;DHT22;21486;51.916;8.378;2023-01-01T00:38:41;16.70;57.30
35381;DHT22;21486;51.916;8.378;2023-01-01T00:41:08;16.70;57.10
35381;DHT22;21486;51.916;8.378;2023-01-01T00:43:35;16.70;57.30
35381;DHT22;21486;51.916;8.378;2023-01-01T00:46:01;16.70;57.10
35381;DHT22;21486;51.916;8.378;2023-01-01T00:48:26;16.70;57.00
35381;DHT22;21486;51.916;8.378;2023-01-01T00:50:52;16.70;57.20
35381;DHT22;21486;51.916;8.378;2023-01-01T00:53:19;16.70;56.80
35381;DHT22;21486;51.916;8.378;2023-01-01T00:55:44;16.80;57.40
35381;DHT22;21486;51.916;8.378;2023-01-01T00:58:11;16.70;57.40
35381;DHT22;21486;51.916;8.378;2023-01-01T01:00:37;16.70;57.20
35381;DHT22;21486;51.916;8.378;2023-01-01T01:03:03;16.70;57.20
35381;DHT22;21486;51.916;8.378;2023-01-01T01:05:29;16.70;57.20
35381;DHT22;21486;51.916;8.378;2023-01-01T01:07:56;16.70;56.90
35381;DHT22;21486;51.916;8.378;2023-01-01T01:10:22;16.60;57.00
35381;DHT22;21486;51.916;8.378;2023-01-01T01:12:52;16.70;57.00
35381;DHT22;21486;51.916;8.378;2023-01-01T01:15:18;16.60;57.10
35381;DHT22;21486;51.916;8.378;2023-01-01T01:17:44;16.60;57.00
35381;DHT22;21486;51.916;8.378;2023-01-01T01:20:10;16.60;56.80
35381;DHT22;21486;51.916;8.378;2023-01-01T01:22:37;16.60;57.00
35381;DHT22;21486;51.916;8.378;2023-01-01T01:25:03;16.60;56.80
35381;DHT22;21486;51.916;8.378;2023-01-01T01:27:30;16.50;57.40
35381;DHT22;21486;51.916;8.378;2023-01-01T01:29:55;16.50;57.20
35381;DHT22;21486;51.916;8.378;2023-01-01T01:32:21;16.60;56.40
35381;DHT22;21486;51.916;8.378;2023-01-01T01:34:47;16.60;57.10
35381;DHT22;21486;51.916;8.378;2023-01-01T01:37:12;16.50;56.90
35381;DHT22;21486;51.916;8.378;2023-01-01T01:39:38;16.50;57.00
35381;DHT22;21486;51.916;8.378;2023-01-01T01:42:04;16.50;57.00
35381;DHT22;21486;51.916;8.378;2023-01-01T01:50:33;16.40;57.00
35381;DHT22;21486;51.916;8.378;2023-01-01T01:55:28;16.30;56.80
35381;DHT22;21486;51.916;8.378;2023-01-01T01:57:55;16.30;57.40
35381;DHT22;21486;51.916;8.378;2023-01-01T02:00:21;16.30;56.80
35381;DHT22;21486;51.916;8.378;2023-01-01T02:03:01;16.40;56.40
35381;DHT22;21486;51.916;8.378;2023-01-01T02:05:29;16.40;56.20
35381;DHT22;21486;51.916;8.378;2023-01-01T02:07:55;16.40;56.30
35381;DHT22;21486;51.916;8.378;2023-01-01T02:10:23;16.40;55.70
35381;DHT22;21486;51.916;8.378;2023-01-01T02:12:48;16.50;55.60
35381;DHT22;21486;51.916;8.378;2023-01-01T02:15:14;16.50;55.40
35381;DHT22;21486;51.916;8.378;2023-01-01T02:18:00;16.40;55.80
35381;DHT22;21486;51.916;8.378;2023-01-01T02:20:49;16.30;56.20
35381;DHT22;21486;51.916;8.378;2023-01-01T02:31:23;16.40;55.70
35381;DHT22;21486;51.916;8.378;2023-01-01T02:33:53;16.40;54.80
35381;DHT22;21486;51.916;8.378;2023-01-01T02:36:21;16.30;54.40
35381;DHT22;21486;51.916;8.378;2023-01-01T02:38:51;16.30;54.70
35381;DHT22;21486;51.916;8.378;2023-01-01T02:41:51;16.30;54.00
35381;DHT22;21486;51.916;8.378;2023-01-01T02:44:18;16.30;54.30
35381;DHT22;21486;51.916;8.378;2023-01-01T02:46:44;16.30;53.80
35381;DHT22;21486;51.916;8.378;2023-01-01T02:49:10;16.30;53.20
35381;DHT22;21486;51.916;8.378;2023-01-01T02:52:06;16.20;53.50
35381;DHT22;21486;51.916;8.378;2023-01-01T02:55:01;16.10;54.00
35381;DHT22;21486;51.916;8.378;2023-01-01T02:58:02;16.10;54.10
35381;DHT22;21486;51.916;8.378;2023-01-01T03:00:54;16.20;53.50
35381;DHT22;21486;51.916;8.378;2023-01-01T03:03:46;16.20;53.40
35381;DHT22;21486;51.916;8.378;2023-01-01T03:06:28;16.20;53.10
35381;DHT22;21486;51.916;8.378;2023-01-01T03:09:31;16.10;53.60
35381;DHT22;21486;51.916;8.378;2023-01-01T03:14:59;16.00;54.10
35381;DHT22;21486;51.916;8.378;2023-01-01T03:17:34;16.00;53.60
35381;DHT22;21486;51.916;8.378;2023-01-01T03:20:20;16.00;53.80
35381;DHT22;21486;51.916;8.378;2023-01-01T03:22:49;16.00;54.10
35381;DHT22;21486;51.916;8.378;2023-01-01T03:25:23;16.00;54.20
35381;DHT22;21486;51.916;8.378;2023-01-01T03:27:53;16.00;53.70
35381;DHT22;21486;51.916;8.378;2023-01-01T03:30:22;16.00;54.30
35381;DHT22;21486;51.916;8.378;2023-01-01T03:32:53;16.00;54.40
35381;DHT22;21486;51.916;8.378;2023-01-01T03:35:42;15.90;54.20
35381;DHT22;21486;51.916;8.378;2023-01-01T03:38:42;16.00;53.60
35381;DHT22;21486;51.916;8.378;2023-01-01T03:41:39;15.90;54.70
35381;DHT22;21486;51.916;8.378;2023-01-01T03:46:50;16.00;53.80
35381;DHT22;21486;51.916;8.378;2023-01-01T03:49:16;16.00;53.80
35381;DHT22;21486;51.916;8.378;2023-01-01T03:57:19;16.00;54.00
35381;DHT22;21486;51.916;8.378;2023-01-01T03:59:51;16.00;54.10
35381;DHT22;21486;51.916;8.378;2023-01-01T04:02:24;16.00;54.70
35381;DHT22;21486;51.916;8.378;2023-01-01T04:04:52;15.90;54.20
35381;DHT22;21486;51.916;8.378;2023-01-01T04:07:19;15.90;54.50
35381;DHT22;21486;51.916;8.378;2023-01-01T04:09:48;15.90;54.60
35381;DHT22;21486;51.916;8.378;2023-01-01T04:12:15;15.90;54.50
35381;DHT22;21486;51.916;8.378;2023-01-01T04:14:42;15.90;54.40
35381;DHT22;21486;51.916;8.378;2023-01-01T04:17:10;15.90;55.10
35381;DHT22;21486;51.916;8.378;2023-01-01T04:19:36;15.80;55.10
35381;DHT22;21486;51.916;8.378;2023-01-01T04:22:03;15.80;55.00
35381;DHT22;21486;51.916;8.378;2023-01-01T04:24:29;15.80;55.00
35381;DHT22;21486;51.916;8.378;2023-01-01T04:26:55;15.80;54.90
35381;DHT22;21486;51.916;8.378;2023-01-01T04:29:21;15.80;55.00
35381;DHT22;21486;51.916;8.378;2023-01-01T04:31:48;15.80;55.20
35381;DHT22;21486;51.916;8.378;2023-01-01T04:34:14;15.90;54.90
35381;DHT22;21486;51.916;8.378;2023-01-01T04:36:40;15.80;55.20
35381;DHT22;21486;51.916;8.378;2023-01-01T04:39:05;15.80;55.10
35381;DHT22;21486;51.916;8.378;2023-01-01T04:41:31;15.80;55.60
35381;DHT22;21486;51.916;8.378;2023-01-01T04:43:56;15.80;55.30
35381;DHT22;21486;51.916;8.378;2023-01-01T04:46:22;15.70;55.20
35381;DHT22;21486;51.916;8.378;2023-01-01T04:48:48;15.70;55.50
35381;DHT22;21486;51.916;8.378;2023-01-01T04:51:16;15.80;55.40
35381;DHT22;21486;51.916;8.378;2023-01-01T04:53:42;15.70;55.40
35381;DHT22;21486;51.916;8.378;2023-01-01T04:56:09;15.80;55.60
35381;DHT22;21486;51.916;8.378;2023-01-01T04:58:37;15.70;55.70
35381;DHT22;21486;51.916;8.378;2023-01-01T05:01:02;15.70;55.80
35381;DHT22;21486;51.916;8.378;2023-01-01T05:03:28;15.70;55.80
35381;DHT22;21486;51.916;8.378;2023-01-01T05:06:09;15.70;56.00
35381;DHT22;21486;51.916;8.378;2023-01-01T05:08:38;15.60;56.10
35381;DHT22;21486;51.916;8.378;2023-01-01T05:11:09;15.60;56.00
35381;DHT22;21486;51.916;8.378;2023-01-01T05:13:41;15.60;56.20
35381;DHT22;21486;51.916;8.378;2023-01-01T05:16:10;15.60;56.00
35381;DHT22;21486;51.916;8.378;2023-01-01T05:18:37;15.60;56.30
35381;DHT22;21486;51.916;8.378;2023-01-01T05:21:05;15.50;56.70
35381;DHT22;21486;51.916;8.378;2023-01-01T05:23:32;15.60;56.70
35381;DHT22;21486;51.916;8.378;2023-01-01T05:25:58;15.60;56.50
35381;DHT22;21486;51.916;8.378;2023-01-01T05:28:24;15.60;56.60
35381;DHT22;21486;51.916;8.378;2023-01-01T05:30:50;15.60;56.40
35381;DHT22;21486;51.916;8.378;2023-01-01T05:33:16;15.70;56.50
35381;DHT22;21486;51.916;8.378;2023-01-01T05:35:42;15.60;56.60
35381;DHT22;21486;51.916;8.378;2023-01-01T05:38:07;15.60;57.00
35381;DHT22;21486;51.916;8.378;2023-01-01T05:40:33;15.60;56.60
35381;DHT22;21486;51.916;8.378;2023-01-01T05:42:58;15.60;57.00
35381;DHT22;21486;51.916;8.378;2023-01-01T05:45:24;15.70;56.80
35381;DHT22;21486;51.916;8.378;2023-01-01T05:47:49;15.70;57.00
35381;DHT22;21486;51.916;8.378;2023-01-01T05:50:15;15.60;57.10
35381;DHT22;21486;51.916;8.378;2023-01-01T05:52:41;15.60;57.30
35381;DHT22;21486;51.916;8.378;2023-01-01T05:55:07;15.50;57.90
35381;DHT22;21486;51.916;8.378;2023-01-01T05:57:32;15.40;58.10
35381;DHT22;21486;51.916;8.378;2023-01-01T05:59:58;15.40;58.00
35381;DHT22;21486;51.916;8.378;2023-01-01T06:02:23;15.50;58.10
35381;DHT22;21486;51.916;8.378;2023-01-01T06:04:49;15.40;57.80
35381;DHT22;21486;51.916;8.378;2023-01-01T06:07:14;15.40;58.10
35381;DHT22;21486;51.916;8.378;2023-01-01T06:09:40;15.40;58.40
35381;DHT22;21486;51.916;8.378;2023-01-01T06:12:06;15.30;58.20
35381;DHT22;21486;51.916;8.378;2023-01-01T06:14:32;15.30;58.90
35381;DHT22;21486;51.916;8.378;2023-01-01T06:16:57;15.30;58.60
35381;DHT22;21486;51.916;8.378;2023-01-01T06:19:23;15.40;58.60
35381;DHT22;21486;51.916;8.378;2023-01-01T06:21:48;15.30;58.30
35381;DHT22;21486;51.916;8.378;2023-01-01T06:24:14;15.30;58.50
35381;DHT22;21486;51.916;8.378;2023-01-01T06:26:40;15.40;58.40
35381;DHT22;21486;51.916;8.378;2023-01-01T06:29:05;15.30;58.70
35381;DHT22;21486;51.916;8.378;2023-01-01T06:31:31;15.20;59.40
35381;DHT22;21486;51.916;8.378;2023-01-01T06:33:57;15.20;59.40
35381;DHT22;21486;51.916;8.378;2023-01-01T06:36:23;15.10;59.50
35381;DHT22;21486;51.916;8.378;2023-01-01T06:38:52;15.10;59.70
35381;DHT22;21486;51.916;8.378;2023-01-01T06:41:20;15.10;60.00
35381;DHT22;21486;51.916;8.378;2023-01-01T06:43:47;15.10;60.40
35381;DHT22;21486;51.916;8.378;2023-01-01T06:46:23;15.20;59.90
35381;DHT22;21486;51.916;8.378;2023-01-01T06:48:53;15.20;60.10
35381;DHT22;21486;51.916;8.378;2023-01-01T06:51:21;15.20;60.10
35381;DHT22;21486;51.916;8.378;2023-01-01T06:53:47;15.10;59.90
35381;DHT22;21486;51.916;8.378;2023-01-01T06:56:14;15.20;60.30
35381;DHT22;21486;51.916;8.378;2023-01-01T06:58:41;15.00;61.30
35381;DHT22;21486;51.916;8.378;2023-01-01T07:03:32;15.00;61.10
35381;DHT22;21486;51.916;8.378;2023-01-01T07:05:58;14.90;61.80
35381;DHT22;21486;51.916;8.378;2023-01-01T07:08:23;15.00;61.00
35381;DHT22;21486;51.916;8.378;2023-01-01T07:10:49;15.10;60.90
35381;DHT22;21486;51.916;8.378;2023-01-01T07:13:15;15.10;60.60
35381;DHT22;21486;51.916;8.378;2023-01-01T07:15:40;15.10;60.80
35381;DHT22;21486;51.916;8.378;2023-01-01T07:18:08;15.10;60.80
35381;DHT22;21486;51.916;8.378;2023-01-01T07:20:33;15.00;60.60
35381;DHT22;21486;51.916;8.378;2023-01-01T07:22:59;15.10;60.40
35381;DHT22;21486;51.916;8.378;2023-01-01T07:25:26;15.10;60.50
35381;DHT22;21486;51.916;8.378;2023-01-01T07:27:52;15.20;60.00
35381;DHT22;21486;51.916;8.378;2023-01-01T07:30:18;15.10;60.30
35381;DHT22;21486;51.916;8.378;2023-01-01T07:32:43;15.10;60.40
35381;DHT22;21486;51.916;8.378;2023-01-01T07:35:09;15.20;60.20
35381;DHT22;21486;51.916;8.378;2023-01-01T07:37:34;15.20;59.90
35381;DHT22;21486;51.916;8.378;2023-01-01T07:40:00;15.20;60.10
35381;DHT22;21486;51.916;8.378;2023-01-01T07:42:26;15.20;60.00
35381;DHT22;21486;51.916;8.378;2023-01-01T07:44:51;15.10;60.50
35381;DHT22;21486;51.916;8.378;2023-01-01T07:47:22;15.10;60.40
35381;DHT22;21486;51.916;8.378;2023-01-01T07:49:48;15.10;60.60
35381;DHT22;21486;51.916;8.378;2023-01-01T07:52:14;15.20;60.50
35381;DHT22;21486;51.916;8.378;2023-01-01T07:54:39;15.10;61.00
35381;DHT22;21486;51.916;8.378;2023-01-01T07:57:05;15.10;61.50
35381;DHT22;21486;51.916;8.378;2023-01-01T07:59:30;14.90;62.10
35381;DHT22;21486;51.916;8.378;2023-01-01T08:01:56;15.00;62.10
35381;DHT22;21486;51.916;8.378;2023-01-01T08:04:22;14.90;62.80
35381;DHT22;21486;51.916;8.378;2023-01-01T08:06:47;14.90;62.80
35381;DHT22;21486;51.916;8.378;2023-01-01T08:09:13;14.90;62.70
35381;DHT22;21486;51.916;8.378;2023-01-01T08:11:38;14.90;63.00
35381;DHT22;21486;51.916;8.378;2023-01-01T08:14:04;14.80;63.40
35381;DHT22;21486;51.916;8.378;2023-01-01T08:16:29;14.90;63.40
35381;DHT22;21486;51.916;8.378;2023-01-01T08:18:55;14.80;63.60
35381;DHT22;21486;51.916;8.378;2023-01-01T08:21:21;14.80;63.90
35381;DHT22;21486;51.916;8.378;2023-01-01T08:23:46;14.80;64.10
35381;DHT22;21486;51.916;8.378;2023-01-01T08:26:16;14.70;64.50
35381;DHT22;21486;51.916;8.378;2023-01-01T08:28:42;14.70;64.80
35381;DHT22;21486;51.916;8.378;2023-01-01T08:31:08;14.80;65.30
35381;DHT22;21486;51.916;8.378;2023-01-01T08:33:34;14.70;65.50
35381;DHT22;21486;51.916;8.378;2023-01-01T08:36:00;14.70;65.70
35381;DHT22;21486;51.916;8.378;2023-01-01T08:38:26;14.60;66.10
35381;DHT22;21486;51.916;8.378;2023-01-01T08:40:51;14.50;67.10
35381;DHT22;21486;51.916;8.378;2023-01-01T08:43:17;14.60;67.80
35381;DHT22;21486;51.916;8.378;2023-01-01T08:45:43;14.50;67.60
35381;DHT22;21486;51.916;8.378;2023-01-01T08:48:09;14.60;68.40
35381;DHT22;21486;51.916;8.378;2023-01-01T08:50:35;14.50;68.70
35381;DHT22;21486;51.916;8.378;2023-01-01T08:53:01;14.30;70.50
35381;DHT22;21486;51.916;8.378;2023-01-01T08:55:26;14.40;70.90
35381;DHT22;21486;51.916;8.378;2023-01-01T08:57:52;14.30;71.20
35381;DHT22;21486;51.916;8.378;2023-01-01T09:00:17;14.30;70.70
35381;DHT22;21486;51.916;8.378;2023-01-01T09:02:43;14.10;71.80
35381;DHT22;21486;51.916;8.378;2023-01-01T09:05:09;14.10;71.20
35381;DHT22;21486;51.916;8.378;2023-01-01T09:07:35;14.10;71.40
35381;DHT22;21486;51.916;8.378;2023-01-01T09:10:00;14.10;71.40
35381;DHT22;21486;51.916;8.378;2023-01-01T09:12:26;14.10;71.80
35381;DHT22;21486;51.916;8.378;2023-01-01T09:14:51;14.10;71.60
35381;DHT22;21486;51.916;8.378;2023-01-01T09:17:17;14.10;72.00
35381;DHT22;21486;51.916;8.378;2023-01-01T09:19:43;14.10;72.80
35381;DHT22;21486;51.916;8.378;2023-01-01T09:22:09;14.00;74.00
35381;DHT22;21486;51.916;8.378;2023-01-01T09:24:35;13.90;75.10
35381;DHT22;21486;51.916;8.378;2023-01-01T09:27:01;13.70;75.60
35381;DHT22;21486;51.916;8.378;2023-01-01T09:29:26;13.70;77.40
35381;DHT22;21486;51.916;8.378;2023-01-01T09:31:52;13.70;76.50
35381;DHT22;21486;51.916;8.378;2023-01-01T09:34:17;13.60;77.40
35381;DHT22;21486;51.916;8.378;2023-01-01T09:36:44;13.60;77.80
35381;DHT22;21486;51.916;8.378;2023-01-01T09:39:14;13.60;77.50
35381;DHT22;21486;51.916;8.378;2023-01-01T09:47:23;13.50;77.20
35381;DHT22;21486;51.916;8.378;2023-01-01T09:49:51;13.50;77.50
35381;DHT22;21486;51.916;8.378;2023-01-01T09:52:18;13.60;77.80
35381;DHT22;21486;51.916;8.378;2023-01-01T09:55:00;13.50;77.90
35381;DHT22;21486;51.916;8.378;2023-01-01T09:57:29;13.50;79.20
35381;DHT22;21486;51.916;8.378;2023-01-01T09:59:57;13.40;81.30
35381;DHT22;21486;51.916;8.378;2023-01-01T10:02:56;13.60;82.20
35381;DHT22;21486;51.916;8.378;2023-01-01T10:06:12;13.40;84.50
35381;DHT22;21486;51.916;8.378;2023-01-01T10:08:38;13.00;88.20
35381;DHT22;21486;51.916;8.378;2023-01-01T10:11:33;12.90;90.30
35381;DHT22;21486;51.916;8.378;2023-01-01T10:14:00;12.80;90.70
35381;DHT22;21486;51.916;8.378;2023-01-01T10:16:37;12.60;91.50
35381;DHT22;21486;51.916;8.378;2023-01-01T10:19:30;12.50;91.60
35381;DHT22;21486;51.916;8.378;2023-01-01T10:22:01;12.40;92.40
35381;DHT22;21486;51.916;8.378;2023-01-01T10:24:45;12.40;92.60
35381;DHT22;21486;51.916;8.378;2023-01-01T10:27:31;12.30;92.90
35381;DHT22;21486;51.916;8.378;2023-01-01T10:30:00;12.40;92.50
35381;DHT22;21486;51.916;8.378;2023-01-01T10:32:34;12.50;92.40
35381;DHT22;21486;51.916;8.378;2023-01-01T10:35:04;12.50;92.50
35381;DHT22;21486;51.916;8.378;2023-01-01T10:37:36;12.40;92.80
35381;DHT22;21486;51.916;8.378;2023-01-01T10:40:12;12.40;92.90
35381;DHT22;21486;51.916;8.378;2023-01-01T10:42:38;12.50;92.40
35381;DHT22;21486;51.916;8.378;2023-01-01T10:45:04;12.60;92.60
35381;DHT22;21486;51.916;8.378;2023-01-01T10:47:30;12.60;92.70
35381;DHT22;21486;51.916;8.378;2023-01-01T10:49:58;12.60;92.80
35381;DHT22;21486;51.916;8.378;2023-01-01T10:52:29;13.00;92.00
35381;DHT22;21486;51.916;8.378;2023-01-01T10:54:58;13.20;91.20
35381;DHT22;21486;51.916;8.378;2023-01-01T10:57:31;13.30;90.40
35381;DHT22;21486;51.916;8.378;2023-01-01T11:00:29;13.10;90.60
35381;DHT22;21486;51.916;8.378;2023-01-01T11:03:19;13.00;90.90
35381;DHT22;21486;51.916;8.378;2023-01-01T11:06:12;12.70;91.70
35381;DHT22;21486;51.916;8.378;2023-01-01T11:08:45;12.60;92.00
35381;DHT22;21486;51.916;8.378;2023-01-01T11:11:28;12.60;92.20
35381;DHT22;21486;51.916;8.378;2023-01-01T11:13:56;12.50;92.50
35381;DHT22;21486;51.916;8.378;2023-01-01T11:16:24;12.60;92.80
35381;DHT22;21486;51.916;8.378;2023-01-01T11:18:50;12.70;92.20
35381;DHT22;21486;51.916;8.378;2023-01-01T11:21:23;12.90;91.60
35381;DHT22;21486;51.916;8.378;2023-01-01T11:23:51;12.90;91.50
35381;DHT22;21486;51.916;8.378;2023-01-01T11:26:31;12.80;91.70
35381;DHT22;21486;51.916;8.378;2023-01-01T11:31:45;12.80;91.20
35381;DHT22;21486;51.916;8.378;2023-01-01T11:34:28;12.80;91.40
35381;DHT22;21486;51.916;8.378;2023-01-01T11:37:15;12.80;91.20
35381;DHT22;21486;51.916;8.378;2023-01-01T11:39:46;12.90;90.90
35381;DHT22;21486;51.916;8.378;2023-01-01T11:42:21;12.80;91.00
35381;DHT22;21486;51.916;8.378;2023-01-01T11:45:13;12.80;91.10
35381;DHT22;21486;51.916;8.378;2023-01-01T11:47:42;12.90;91.40
35381;DHT22;21486;51.916;8.378;2023-01-01T11:52:57;12.90;91.40
35381;DHT22;21486;51.916;8.378;2023-01-01T11:55:37;13.10;91.00
35381;DHT22;21486;51.916;8.378;2023-01-01T12:01:00;13.10;90.70
35381;DHT22;21486;51.916;8.378;2023-01-01T12:03:34;12.90;91.20
35381;DHT22;21486;51.916;8.378;2023-01-01T12:06:20;13.20;90.70
35381;DHT22;21486;51.916;8.378;2023-01-01T12:08:54;13.30;90.60
35381;DHT22;21486;51.916;8.378;2023-01-01T12:13:58;13.10;89.40
35381;DHT22;21486;51.916;8.378;2023-01-01T12:16:59;13.00;90.40
35381;DHT22;21486;51.916;8.378;2023-01-01T12:19:55;12.80;91.10
35381;DHT22;21486;51.916;8.378;2023-01-01T12:22:23;13.10;90.90
35381;DHT22;21486;51.916;8.378;2023-01-01T12:24:50;13.10;90.00
35381;DHT22;21486;51.916;8.378;2023-01-01T12:27:18;13.20;90.10
35381;DHT22;21486;51.916;8.378;2023-01-01T12:30:03;13.00;89.70
35381;DHT22;21486;51.916;8.378;2023-01-01T12:35:36;13.20;86.00
35381;DHT22;21486;51.916;8.378;2023-01-01T12:40:51;13.70;82.60
35381;DHT22;21486;51.916;8.378;2023-01-01T12:46:43;13.90;82.40
35381;DHT22;21486;51.916;8.378;2023-01-01T12:57:45;14.10;77.50
35381;DHT22;21486;51.916;8.378;2023-01-01T13:00:17;14.20;77.40
35381;DHT22;21486;51.916;8.378;2023-01-01T13:02:50;14.30;76.80
35381;DHT22;21486;51.916;8.378;2023-01-01T13:05:23;14.40;75.70
35381;DHT22;21486;51.916;8.378;2023-01-01T13:07:53;14.40;75.30
35381;DHT22;21486;51.916;8.378;2023-01-01T13:10:26;14.60;74.20
35381;DHT22;21486;51.916;8.378;2023-01-01T13:12:55;14.70;73.80
35381;DHT22;21486;51.916;8.378;2023-01-01T13:18:15;14.60;74.00
35381;DHT22;21486;51.916;8.378;2023-01-01T13:26:34;14.60;74.80
35381;DHT22;21486;51.916;8.378;2023-01-01T13:34:32;14.70;73.20
35381;DHT22;21486;51.916;8.378;2023-01-01T13:39:58;14.60;73.50
35381;DHT22;21486;51.916;8.378;2023-01-01T13:45:37;14.60;73.40
35381;DHT22;21486;51.916;8.378;2023-01-01T13:51:08;14.60;73.20
35381;DHT22;21486;51.916;8.378;2023-01-01T13:54:21;14.60;73.40
35381;DHT22;21486;51.916;8.378;2023-01-01T13:57:01;14.50;72.90
35381;DHT22;21486;51.916;8.378;2023-01-01T14:07:44;14.40;73.80
35381;DHT22;21486;51.916;8.378;2023-01-01T14:12:39;14.30;74.70
35381;DHT22;21486;51.916;8.378;2023-01-01T14:17:42;14.30;74.20
35381;DHT22;21486;51.916;8.378;2023-01-01T14:20:12;14.40;74.50
35381;DHT22;21486;51.916;8.378;2023-01-01T14:22:39;14.30;74.50
35381;DHT22;21486;51.916;8.378;2023-01-01T14:25:05;14.30;74.10
35381;DHT22;21486;51.916;8.378;2023-01-01T14:27:31;14.20;74.50
35381;DHT22;21486;51.916;8.378;2023-01-01T14:29:56;14.20;74.80
35381;DHT22;21486;51.916;8.378;2023-01-01T14:32:23;14.10;74.50
35381;DHT22;21486;51.916;8.378;2023-01-01T14:34:59;14.20;74.80
35381;DHT22;21486;51.916;8.378;2023-01-01T14:37:28;14.10;74.80
35381;DHT22;21486;51.916;8.378;2023-01-01T14:40:10;14.30;74.70
35381;DHT22;21486;51.916;8.378;2023-01-01T14:42:39;14.10;74.50
35381;DHT22;21486;51.916;8.378;2023-01-01T14:45:05;14.00;74.60
35381;DHT22;21486;51.916;8.378;2023-01-01T14:47:37;14.00;74.70
35381;DHT22;21486;51.916;8.378;2023-01-01T14:50:16;13.90;74.90
35381;DHT22;21486;51.916;8.378;2023-01-01T14:52:43;13.90;75.20
35381;DHT22;21486;51.916;8.378;2023-01-01T14:55:16;13.90;76.20
35381;DHT22;21486;51.916;8.378;2023-01-01T14:57:45;14.00;74.80
35381;DHT22;21486;51.916;8.378;2023-01-01T15:00:32;14.00;75.30
35381;DHT22;21486;51.916;8.378;2023-01-01T15:03:10;14.10;74.90
35381;DHT22;21486;51.916;8.378;2023-01-01T15:05:36;14.00;75.30
35381;DHT22;21486;51.916;8.378;2023-01-01T15:08:04;13.90;75.80
35381;DHT22;21486;51.916;8.378;2023-01-01T15:10:33;13.80;76.20
35381;DHT22;21486;51.916;8.378;2023-01-01T15:13:03;13.80;76.60
35381;DHT22;21486;51.916;8.378;2023-01-01T15:15:43;13.80;75.80
35381;DHT22;21486;51.916;8.378;2023-01-01T15:18:35;13.80;75.60
35381;DHT22;21486;51.916;8.378;2023-01-01T15:24:13;13.70;76.00
35381;DHT22;21486;51.916;8.378;2023-01-01T15:26:49;13.60;76.20
35381;DHT22;21486;51.916;8.378;2023-01-01T15:29:38;13.60;76.70
35381;DHT22;21486;51.916;8.378;2023-01-01T15:32:10;13.60;76.50
35381;DHT22;21486;51.916;8.378;2023-01-01T15:34:42;13.70;76.10
35381;DHT22;21486;51.916;8.378;2023-01-01T15:39:56;13.70;76.30
35381;DHT22;21486;51.916;8.378;2023-01-01T15:42:27;13.70;76.40
35381;DHT22;21486;51.916;8.378;2023-01-01T15:44:55;13.60;76.70
35381;DHT22;21486;51.916;8.378;2023-01-01T15:47:20;13.60;76.90
35381;DHT22;21486;51.916;8.378;2023-01-01T15:50:09;13.50;77.40
35381;DHT22;21486;51.916;8.378;2023-01-01T15:52:35;13.40;77.70
35381;DHT22;21486;51.916;8.378;2023-01-01T15:55:01;13.30;77.60
35381;DHT22;21486;51.916;8.378;2023-01-01T15:57:27;13.30;77.90
35381;DHT22;21486;51.916;8.378;2023-01-01T15:59:53;13.30;78.00
35381;DHT22;21486;51.916;8.378;2023-01-01T16:02:25;13.20;78.70
35381;DHT22;21486;51.916;8.378;2023-01-01T16:04:51;13.20;78.70
35381;DHT22;21486;51.916;8.378;2023-01-01T16:07:22;13.10;78.80
35381;DHT22;21486;51.916;8.378;2023-01-01T16:09:52;13.10;79.30
35381;DHT22;21486;51.916;8.378;2023-01-01T16:12:18;13.10;79.50
35381;DHT22;21486;51.916;8.378;2023-01-01T16:14:44;13.00;79.60
35381;DHT22;21486;51.916;8.378;2023-01-01T16:17:15;13.20;79.60
35381;DHT22;21486;51.916;8.378;2023-01-01T16:19:41;13.10;79.60
35381;DHT22;21486;51.916;8.378;2023-01-01T16:22:14;13.10;79.80
35381;DHT22;21486;51.916;8.378;2023-01-01T16:24:41;13.10;79.90
35381;DHT22;21486;51.916;8.378;2023-01-01T16:27:08;13.00;80.00
35381;DHT22;21486;51.916;8.378;2023-01-01T16:29:33;13.10;79.90
35381;DHT22;21486;51.916;8.378;2023-01-01T16:31:59;13.00;80.30
35381;DHT22;21486;51.916;8.378;2023-01-01T16:34:24;13.00;80.50
35381;DHT22;21486;51.916;8.378;2023-01-01T16:36:50;13.00;80.20
35381;DHT22;21486;51.916;8.378;2023-01-01T16:39:15;13.00;80.40
35381;DHT22;21486;51.916;8.378;2023-01-01T16:41:42;13.00;80.30
35381;DHT22;21486;51.916;8.378;2023-01-01T16:44:11;13.00;80.20
35381;DHT22;21486;51.916;8.378;2023-01-01T16:46:36;13.00;80.10
35381;DHT22;21486;51.916;8.378;2023-01-01T16:49:02;13.00;79.90
35381;DHT22;21486;51.916;8.378;2023-01-01T16:51:29;13.00;80.10
35381;DHT22;21486;51.916;8.378;2023-01-01T16:53:55;12.90;80.10
35381;DHT22;21486;51.916;8.378;2023-01-01T16:56:22;12.90;80.30
35381;DHT22;21486;51.916;8.378;2023-01-01T16:58:47;13.00;80.10
35381;DHT22;21486;51.916;8.378;2023-01-01T17:01:13;12.90;79.90
35381;DHT22;21486;51.916;8.378;2023-01-01T17:03:39;13.00;79.80
35381;DHT22;21486;51.916;8.378;2023-01-01T17:06:06;12.90;79.80
35381;DHT22;21486;51.916;8.378;2023-01-01T17:08:32;12.90;80.20
35381;DHT22;21486;51.916;8.378;2023-01-01T17:11:06;12.90;79.90
35381;DHT22;21486;51.916;8.378;2023-01-01T17:13:35;12.90;80.40
35381;DHT22;21486;51.916;8.378;2023-01-01T17:16:01;12.90;80.50
35381;DHT22;21486;51.916;8.378;2023-01-01T17:18:27;12.90;80.90
35381;DHT22;21486;51.916;8.378;2023-01-01T17:20:52;12.80;81.20
35381;DHT22;21486;51.916;8.378;2023-01-01T17:23:18;12.80;81.60
35381;DHT22;21486;51.916;8.378;2023-01-01T17:25:44;12.70;81.30
35381;DHT22;21486;51.916;8.378;2023-01-01T17:28:09;12.70;81.70
35381;DHT22;21486;51.916;8.378;2023-01-01T17:30:35;12.70;81.30
35381;DHT22;21486;51.916;8.378;2023-01-01T17:33:00;12.80;81.60
35381;DHT22;21486;51.916;8.378;2023-01-01T17:35:26;12.80;81.70